sensor_id;sensor_type;location;lat;lon;timestamp;temperature;humidity
15937;DHT22;9163;48.818;8.976;2024-01-25T00:02:05;8.70;99.90
15937;DHT22;9163;48.818;8.976;2024-01-25T00:04:32;8.70;99.90
15937;DHT22;9163;48.818;8.976;2024-01-25T00:07:01;8.70;99.90
15937;DHT22;9163;48.818;8.976;2024-01-25T00:09:28;8.70;99.90
15937;DHT22;9163;48.818;8.976;2024-01-25T00:11:55;8.70;99.90
15937;DHT22;9163;48.818;8.976;2024-01-25T00:14:22;8.70;99.90
15937;DHT22;9163;48.818;8.976;2024-01-25T00:16:49;8.70;99.90
15937;DHT22;9163;48.818;8.976;2024-01-25T00:19:17;8.70;99.90
15937;DHT22;9163;48.818;8.976;2024-01-25T00:21:45;8.80;99.90
15937;DHT22;9163;48.818;8.976;2024-01-25T00:24:13;8.80;99.90
15937;DHT22;9163;48.818;8.976;2024-01-25T00:26:41;8.80;99.90
15937;DHT22;9163;48.818;8.976;2024-01-25T00:29:08;8.90;99.90
15937;DHT22;9163;48.818;8.976;2024-01-25T00:31:35;8.80;99.90
15937;DHT22;9163;48.818;8.976;2024-01-25T00:34:03;8.80;99.90
15937;DHT22;9163;48.818;8.976;2024-01-25T00:36:31;8.80;99.90
15937;DHT22;9163;48.818;8.976;2024-01-25T00:38:59;8.80;99.90
15937;DHT22;9163;48.818;8.976;2024-01-25T00:41:28;8.80;99.90
15937;DHT22;9163;48.818;8.976;2024-01-25T00:43:59;8.90;99.90
15937;DHT22;9163;48.818;8.976;2024-01-25T00:46:27;8.90;99.90
15937;DHT22;9163;48.818;8.976;2024-01-25T00:48:54;8.90;99.90
15937;DHT22;9163;48.818;8.976;2024-01-25T00:51:22;8.90;99.90
15937;DHT22;9163;48.818;8.976;2024-01-25T00:53:50;8.90;99.90
15937;DHT22;9163;48.818;8.976;2024-01-25T00:56:18;8.90;99.90
15937;DHT22;9163;48.818;8.976;2024-01-25T00:58:46;8.90;99.90
15937;DHT22;9163;48.818;8.976;2024-01-25T01:01:14;8.90;99.90
15937;DHT22;9163;48.818;8.976;2024-01-25T01:03:42;8.90;99.90
15937;DHT22;9163;48.818;8.976;2024-01-25T01:06:10;8.90;99.90
15937;DHT22;9163;48.818;8.976;2024-01-25T01:08:38;8.90;99.90
15937;DHT22;9163;48.818;8.976;2024-01-25T01:11:05;8.80;99.90
15937;DHT22;9163;48.818;8.976;2024-01-25T01:13:32;8.90;99.90
15937;DHT22;9163;48.818;8.976;2024-01-25T01:16:01;8.90;99.90
15937;DHT22;9163;48.818;8.976;2024-01-25T01:18:28;8.90;99.90
15937;DHT22;9163;48.818;8.976;2024-01-25T01:20:55;8.90;99.90
15937;DHT22;9163;48.818;8.976;2024-01-25T01:23:23;8.90;99.90
15937;DHT22;9163;48.818;8.976;2024-01-25T01:25:50;8.90;99.90
15937;DHT22;9163;48.818;8.976;2024-01-25T01:28:17;8.80;99.90
15937;DHT22;9163;48.818;8.976;2024-01-25T01:30:44;8.80;99.90
15937;DHT22;9163;48.818;8.976;2024-01-25T01:33:13;8.80;99.90
15937;DHT22;9163;48.818;8.976;2024-01-25T01:35:40;8.80;99.90
15937;DHT22;9163;48.818;8.976;2024-01-25T01:38:08;8.80;99.90
15937;DHT22;9163;48.818;8.976;2024-01-25T01:40:35;8.80;99.90
15937;DHT22;9163;48.818;8.976;2024-01-25T01:43:02;8.80;99.90
15937;DHT22;9163;48.818;8.976;2024-01-25T01:45:30;8.80;99.90
15937;DHT22;9163;48.818;8.976;2024-01-25T01:47:58;8.80;99.90
15937;DHT22;9163;48.818;8.976;2024-01-25T01:50:27;8.80;99.90
15937;DHT22;9163;48.818;8.976;2024-01-25T01:52:55;8.80;99.90
15937;DHT22;9163;48.818;8.976;2024-01-25T01:55:22;8.80;99.90
15937;DHT22;9163;48.818;8.976;2024-01-25T01:57:50;8.80;99.90
15937;DHT22;9163;48.818;8.976;2024-01-25T02:00:17;8.70;99.90
15937;DHT22;9163;48.818;8.976;2024-01-25T02:02:45;8.70;99.90
15937;DHT22;9163;48.818;8.976;2024-01-25T02:05:12;8.70;99.90
15937;DHT22;9163;48.818;8.976;2024-01-25T02:07:42;8.70;99.90
15937;DHT22;9163;48.818;8.976;2024-01-25T02:10:11;8.70;99.90
15937;DHT22;9163;48.818;8.976;2024-01-25T02:12:38;8.70;99.90
15937;DHT22;9163;48.818;8.976;2024-01-25T02:15:06;8.70;99.90
15937;DHT22;9163;48.818;8.976;2024-01-25T02:17:33;8.60;99.90
15937;DHT22;9163;48.818;8.976;2024-01-25T02:20:00;8.70;99.90
15937;DHT22;9163;48.818;8.976;2024-01-25T02:22:30;8.60;99.90
15937;DHT22;9163;48.818;8.976;2024-01-25T02:24:58;8.60;99.90
15937;DHT22;9163;48.818;8.976;2024-01-25T02:27:26;8.60;99.90
15937;DHT22;9163;48.818;8.976;2024-01-25T02:29:53;8.60;99.90
15937;DHT22;9163;48.818;8.976;2024-01-25T02:32:20;8.60;99.90
15937;DHT22;9163;48.818;8.976;2024-01-25T02:34:47;8.60;99.90
15937;DHT22;9163;48.818;8.976;2024-01-25T02:37:15;8.60;99.90
15937;DHT22;9163;48.818;8.976;2024-01-25T02:39:44;8.60;99.90
15937;DHT22;9163;48.818;8.976;2024-01-25T02:42:11;8.60;99.90
15937;DHT22;9163;48.818;8.976;2024-01-25T02:44:40;8.60;99.90
15937;DHT22;9163;48.818;8.976;2024-01-25T02:47:07;8.50;99.90
15937;DHT22;9163;48.818;8.976;2024-01-25T02:49:34;8.60;99.90
15937;DHT22;9163;48.818;8.976;2024-01-25T02:52:02;8.50;99.90
15937;DHT22;9163;48.818;8.976;2024-01-25T02:54:29;8.50;99.90
15937;DHT22;9163;48.818;8.976;2024-01-25T02:56:58;8.50;99.90
15937;DHT22;9163;48.818;8.976;2024-01-25T02:59:25;8.50;99.90
15937;DHT22;9163;48.818;8.976;2024-01-25T03:01:53;8.50;99.90
15937;DHT22;9163;48.818;8.976;2024-01-25T03:04:21;8.50;99.90
15937;DHT22;9163;48.818;8.976;2024-01-25T03:06:48;8.50;99.90
15937;DHT22;9163;48.818;8.976;2024-01-25T03:09:15;8.50;99.90
15937;DHT22;9163;48.818;8.976;2024-01-25T03:11:43;8.40;99.90
15937;DHT22;9163;48.818;8.976;2024-01-25T03:14:11;8.50;99.90
15937;DHT22;9163;48.818;8.976;2024-01-25T03:16:38;8.40;99.90
15937;DHT22;9163;48.818;8.976;2024-01-25T03:19:06;8.40;99.90
15937;DHT22;9163;48.818;8.976;2024-01-25T03:21:33;8.40;99.90
15937;DHT22;9163;48.818;8.976;2024-01-25T03:24:00;8.40;99.90
15937;DHT22;9163;48.818;8.976;2024-01-25T03:26:28;8.40;99.90
15937;DHT22;9163;48.818;8.976;2024-01-25T03:28:55;8.40;99.90
15937;DHT22;9163;48.818;8.976;2024-01-25T03:31:23;8.30;99.90
15937;DHT22;9163;48.818;8.976;2024-01-25T03:33:51;8.30;99.90
15937;DHT22;9163;48.818;8.976;2024-01-25T03:36:18;8.30;99.90
15937;DHT22;9163;48.818;8.976;2024-01-25T03:38:45;8.30;99.90
15937;DHT22;9163;48.818;8.976;2024-01-25T03:41:12;8.30;99.90
15937;DHT22;9163;48.818;8.976;2024-01-25T03:43:40;8.30;99.90
15937;DHT22;9163;48.818;8.976;2024-01-25T03:46:07;8.30;99.90
15937;DHT22;9163;48.818;8.976;2024-01-25T03:48:36;8.20;99.90
15937;DHT22;9163;48.818;8.976;2024-01-25T03:51:03;8.30;99.90
15937;DHT22;9163;48.818;8.976;2024-01-25T03:53:30;8.20;99.90
15937;DHT22;9163;48.818;8.976;2024-01-25T03:55:58;8.20;99.90
15937;DHT22;9163;48.818;8.976;2024-01-25T03:58:25;8.20;99.90
15937;DHT22;9163;48.818;8.976;2024-01-25T04:00:52;8.30;99.90
15937;DHT22;9163;48.818;8.976;2024-01-25T04:03:19;8.20;99.90
15937;DHT22;9163;48.818;8.976;2024-01-25T04:05:48;8.10;99.90
15937;DHT22;9163;48.818;8.976;2024-01-25T04:08:15;8.10;99.90
15937;DHT22;9163;48.818;8.976;2024-01-25T04:10:43;8.10;99.90
15937;DHT22;9163;48.818;8.976;2024-01-25T04:13:10;8.10;99.90
15937;DHT22;9163;48.818;8.976;2024-01-25T04:15:37;8.10;99.90
15937;DHT22;9163;48.818;8.976;2024-01-25T04:18:05;8.10;99.90
15937;DHT22;9163;48.818;8.976;2024-01-25T04:20:32;8.10;99.90
15937;DHT22;9163;48.818;8.976;2024-01-25T04:23:01;8.00;99.90
15937;DHT22;9163;48.818;8.976;2024-01-25T04:25:29;8.00;99.90
15937;DHT22;9163;48.818;8.976;2024-01-25T04:27:56;8.10;99.90
15937;DHT22;9163;48.818;8.976;2024-01-25T04:30:23;8.10;99.90
15937;DHT22;9163;48.818;8.976;2024-01-25T04:32:50;8.00;99.90
15937;DHT22;9163;48.818;8.976;2024-01-25T04:35:18;8.00;99.90
15937;DHT22;9163;48.818;8.976;2024-01-25T04:37:45;8.00;99.90
15937;DHT22;9163;48.818;8.976;2024-01-25T04:40:14;7.90;99.90
15937;DHT22;9163;48.818;8.976;2024-01-25T04:42:41;7.90;99.90
15937;DHT22;9163;48.818;8.976;2024-01-25T04:45:09;7.90;99.90
15937;DHT22;9163;48.818;8.976;2024-01-25T04:47:37;7.90;99.90
15937;DHT22;9163;48.818;8.976;2024-01-25T04:50:05;7.90;99.90
15937;DHT22;9163;48.818;8.976;2024-01-25T04:52:32;7.90;99.90
15937;DHT22;9163;48.818;8.976;2024-01-25T04:54:59;7.90;99.90
15937;DHT22;9163;48.818;8.976;2024-01-25T04:57:28;7.90;99.90
15937;DHT22;9163;48.818;8.976;2024-01-25T04:59:55;7.90;99.90
15937;DHT22;9163;48.818;8.976;2024-01-25T05:02:23;7.90;99.90
15937;DHT22;9163;48.818;8.976;2024-01-25T05:04:50;7.90;99.90
15937;DHT22;9163;48.818;8.976;2024-01-25T05:07:17;7.80;99.90
15937;DHT22;9163;48.818;8.976;2024-01-25T05:09:44;7.80;99.90
15937;DHT22;9163;48.818;8.976;2024-01-25T05:12:12;7.70;99.90
15937;DHT22;9163;48.818;8.976;2024-01-25T05:14:40;7.70;99.90
15937;DHT22;9163;48.818;8.976;2024-01-25T05:17:08;7.70;99.90
15937;DHT22;9163;48.818;8.976;2024-01-25T05:19:35;7.60;99.90
15937;DHT22;9163;48.818;8.976;2024-01-25T05:22:02;7.60;99.90
15937;DHT22;9163;48.818;8.976;2024-01-25T05:24:32;7.60;99.90
15937;DHT22;9163;48.818;8.976;2024-01-25T05:26:59;7.50;99.90
15937;DHT22;9163;48.818;8.976;2024-01-25T05:29:28;7.40;99.90
15937;DHT22;9163;48.818;8.976;2024-01-25T05:31:56;7.40;99.90
15937;DHT22;9163;48.818;8.976;2024-01-25T05:34:24;7.30;99.90
15937;DHT22;9163;48.818;8.976;2024-01-25T05:36:51;7.20;99.90
15937;DHT22;9163;48.818;8.976;2024-01-25T05:39:19;7.10;99.90
15937;DHT22;9163;48.818;8.976;2024-01-25T05:41:47;7.10;99.90
15937;DHT22;9163;48.818;8.976;2024-01-25T05:44:14;7.00;99.90
15937;DHT22;9163;48.818;8.976;2024-01-25T05:46:41;7.00;99.90
15937;DHT22;9163;48.818;8.976;2024-01-25T05:49:10;7.00;99.90
15937;DHT22;9163;48.818;8.976;2024-01-25T05:51:38;6.90;99.90
15937;DHT22;9163;48.818;8.976;2024-01-25T05:54:05;6.80;99.90
15937;DHT22;9163;48.818;8.976;2024-01-25T05:56:32;6.80;99.90
15937;DHT22;9163;48.818;8.976;2024-01-25T05:58:59;6.80;99.90
15937;DHT22;9163;48.818;8.976;2024-01-25T06:01:27;6.70;99.90
15937;DHT22;9163;48.818;8.976;2024-01-25T06:03:54;6.70;99.90
15937;DHT22;9163;48.818;8.976;2024-01-25T06:06:23;6.60;99.90
15937;DHT22;9163;48.818;8.976;2024-01-25T06:08:50;6.50;99.90
15937;DHT22;9163;48.818;8.976;2024-01-25T06:11:17;6.50;99.90
15937;DHT22;9163;48.818;8.976;2024-01-25T06:13:44;6.50;99.90
15937;DHT22;9163;48.818;8.976;2024-01-25T06:16:11;6.40;99.90
15937;DHT22;9163;48.818;8.976;2024-01-25T06:18:39;6.40;99.90
15937;DHT22;9163;48.818;8.976;2024-01-25T06:21:06;6.40;99.90
15937;DHT22;9163;48.818;8.976;2024-01-25T06:23:34;6.30;99.90
15937;DHT22;9163;48.818;8.976;2024-01-25T06:26:02;6.30;99.90
15937;DHT22;9163;48.818;8.976;2024-01-25T06:28:30;6.30;99.90
15937;DHT22;9163;48.818;8.976;2024-01-25T06:30:57;6.20;99.90
15937;DHT22;9163;48.818;8.976;2024-01-25T06:33:24;6.20;99.90
15937;DHT22;9163;48.818;8.976;2024-01-25T06:35:52;6.20;99.90
15937;DHT22;9163;48.818;8.976;2024-01-25T06:38:19;6.20;99.90
15937;DHT22;9163;48.818;8.976;2024-01-25T06:40:48;6.10;99.90
15937;DHT22;9163;48.818;8.976;2024-01-25T06:43:15;6.10;99.90
15937;DHT22;9163;48.818;8.976;2024-01-25T06:45:42;6.00;99.90
15937;DHT22;9163;48.818;8.976;2024-01-25T06:48:09;6.00;99.90
15937;DHT22;9163;48.818;8.976;2024-01-25T06:50:37;6.10;99.90
15937;DHT22;9163;48.818;8.976;2024-01-25T06:53:04;6.10;99.90
15937;DHT22;9163;48.818;8.976;2024-01-25T06:55:31;6.00;99.90
15937;DHT22;9163;48.818;8.976;2024-01-25T06:58:00;6.00;99.90
15937;DHT22;9163;48.818;8.976;2024-01-25T07:00:27;6.00;99.90
15937;DHT22;9163;48.818;8.976;2024-01-25T07:02:55;6.00;99.90
15937;DHT22;9163;48.818;8.976;2024-01-25T07:05:22;6.00;99.90
15937;DHT22;9163;48.818;8.976;2024-01-25T07:07:50;6.00;99.90
15937;DHT22;9163;48.818;8.976;2024-01-25T07:10:17;5.90;99.90
15937;DHT22;9163;48.818;8.976;2024-01-25T07:12:45;5.90;99.90
15937;DHT22;9163;48.818;8.976;2024-01-25T07:15:13;5.90;99.90
15937;DHT22;9163;48.818;8.976;2024-01-25T07:17:41;5.80;99.90
15937;DHT22;9163;48.818;8.976;2024-01-25T07:20:08;5.80;99.90
15937;DHT22;9163;48.818;8.976;2024-01-25T07:22:36;5.80;99.90
15937;DHT22;9163;48.818;8.976;2024-01-25T07:25:04;5.90;99.90
15937;DHT22;9163;48.818;8.976;2024-01-25T07:27:31;5.90;99.90
15937;DHT22;9163;48.818;8.976;2024-01-25T07:29:58;5.90;99.90
15937;DHT22;9163;48.818;8.976;2024-01-25T07:32:27;6.00;99.90
15937;DHT22;9163;48.818;8.976;2024-01-25T07:34:54;6.00;99.90
15937;DHT22;9163;48.818;8.976;2024-01-25T07:37:22;6.10;99.90
15937;DHT22;9163;48.818;8.976;2024-01-25T07:39:50;6.20;99.90
15937;DHT22;9163;48.818;8.976;2024-01-25T07:42:17;6.40;99.90
15937;DHT22;9163;48.818;8.976;2024-01-25T07:44:44;6.40;99.90
15937;DHT22;9163;48.818;8.976;2024-01-25T07:47:12;6.60;99.90
15937;DHT22;9163;48.818;8.976;2024-01-25T07:49:41;6.80;99.90
15937;DHT22;9163;48.818;8.976;2024-01-25T07:52:09;7.00;99.90
15937;DHT22;9163;48.818;8.976;2024-01-25T07:54:36;7.20;99.90
15937;DHT22;9163;48.818;8.976;2024-01-25T07:57:04;7.30;99.90
15937;DHT22;9163;48.818;8.976;2024-01-25T07:59:31;7.50;99.90
15937;DHT22;9163;48.818;8.976;2024-01-25T08:01:58;7.80;99.90
15937;DHT22;9163;48.818;8.976;2024-01-25T08:04:26;7.70;99.90
15937;DHT22;9163;48.818;8.976;2024-01-25T08:06:54;7.70;99.90
15937;DHT22;9163;48.818;8.976;2024-01-25T08:09:22;7.90;99.90
15937;DHT22;9163;48.818;8.976;2024-01-25T08:11:49;8.10;99.90
15937;DHT22;9163;48.818;8.976;2024-01-25T08:14:17;8.50;99.90
15937;DHT22;9163;48.818;8.976;2024-01-25T08:16:45;8.70;89.90
15937;DHT22;9163;48.818;8.976;2024-01-25T08:19:12;9.10;65.10
15937;DHT22;9163;48.818;8.976;2024-01-25T08:21:39;9.40;5.50
15937;DHT22;9163;48.818;8.976;2024-01-25T08:24:08;9.20;1.00
15937;DHT22;9163;48.818;8.976;2024-01-25T08:26:35;9.30;1.00
15937;DHT22;9163;48.818;8.976;2024-01-25T08:29:03;9.40;1.00
15937;DHT22;9163;48.818;8.976;2024-01-25T08:31:30;9.50;1.00
15937;DHT22;9163;48.818;8.976;2024-01-25T08:33:57;9.90;1.00
15937;DHT22;9163;48.818;8.976;2024-01-25T08:36:24;9.90;1.00
15937;DHT22;9163;48.818;8.976;2024-01-25T08:38:51;10.00;1.00
15937;DHT22;9163;48.818;8.976;2024-01-25T08:41:20;10.00;1.00
15937;DHT22;9163;48.818;8.976;2024-01-25T08:43:47;10.30;1.00
15937;DHT22;9163;48.818;8.976;2024-01-25T08:46:15;10.80;1.00
15937;DHT22;9163;48.818;8.976;2024-01-25T08:48:42;11.60;1.00
15937;DHT22;9163;48.818;8.976;2024-01-25T08:51:10;10.90;1.00
15937;DHT22;9163;48.818;8.976;2024-01-25T08:53:37;11.60;1.00
15937;DHT22;9163;48.818;8.976;2024-01-25T08:56:05;12.00;1.00
15937;DHT22;9163;48.818;8.976;2024-01-25T08:58:34;12.20;1.00
15937;DHT22;9163;48.818;8.976;2024-01-25T09:01:01;13.40;1.00
15937;DHT22;9163;48.818;8.976;2024-01-25T09:03:28;13.40;1.00
15937;DHT22;9163;48.818;8.976;2024-01-25T09:05:55;13.90;1.00
15937;DHT22;9163;48.818;8.976;2024-01-25T09:08:23;14.60;1.00
15937;DHT22;9163;48.818;8.976;2024-01-25T09:10:50;14.30;1.00
15937;DHT22;9163;48.818;8.976;2024-01-25T09:13:17;15.00;1.00
15937;DHT22;9163;48.818;8.976;2024-01-25T09:15:46;16.30;1.00
15937;DHT22;9163;48.818;8.976;2024-01-25T09:18:13;17.10;1.00
15937;DHT22;9163;48.818;8.976;2024-01-25T09:20:41;16.40;1.00
15937;DHT22;9163;48.818;8.976;2024-01-25T09:23:13;15.80;1.00
15937;DHT22;9163;48.818;8.976;2024-01-25T09:25:41;13.80;1.00
15937;DHT22;9163;48.818;8.976;2024-01-25T09:28:08;13.60;1.00
15937;DHT22;9163;48.818;8.976;2024-01-25T09:30:38;13.10;1.00
15937;DHT22;9163;48.818;8.976;2024-01-25T09:33:07;12.00;99.90
15937;DHT22;9163;48.818;8.976;2024-01-25T09:35:34;12.00;99.90
15937;DHT22;9163;48.818;8.976;2024-01-25T09:38:01;11.40;99.90
15937;DHT22;9163;48.818;8.976;2024-01-25T09:40:29;11.40;99.90
15937;DHT22;9163;48.818;8.976;2024-01-25T09:42:56;11.20;99.90
15937;DHT22;9163;48.818;8.976;2024-01-25T09:45:24;11.40;99.90
15937;DHT22;9163;48.818;8.976;2024-01-25T09:47:51;10.80;99.90
15937;DHT22;9163;48.818;8.976;2024-01-25T09:50:20;10.80;1.00
15937;DHT22;9163;48.818;8.976;2024-01-25T09:52:53;10.70;1.00
15937;DHT22;9163;48.818;8.976;2024-01-25T09:55:23;10.80;1.00
15937;DHT22;9163;48.818;8.976;2024-01-25T09:57:53;10.80;1.00
15937;DHT22;9163;48.818;8.976;2024-01-25T10:00:22;11.10;1.00
15937;DHT22;9163;48.818;8.976;2024-01-25T10:02:50;11.10;1.00
15937;DHT22;9163;48.818;8.976;2024-01-25T10:05:17;10.70;1.00
15937;DHT22;9163;48.818;8.976;2024-01-25T10:07:46;10.60;1.00
15937;DHT22;9163;48.818;8.976;2024-01-25T10:10:14;11.30;1.00
15937;DHT22;9163;48.818;8.976;2024-01-25T10:12:42;11.50;1.00
15937;DHT22;9163;48.818;8.976;2024-01-25T10:15:10;11.40;1.00
15937;DHT22;9163;48.818;8.976;2024-01-25T10:17:38;11.20;1.00
15937;DHT22;9163;48.818;8.976;2024-01-25T10:20:06;11.10;1.00
15937;DHT22;9163;48.818;8.976;2024-01-25T10:22:37;10.90;1.00
15937;DHT22;9163;48.818;8.976;2024-01-25T10:25:12;10.80;1.00
15937;DHT22;9163;48.818;8.976;2024-01-25T10:27:40;10.90;1.00
15937;DHT22;9163;48.818;8.976;2024-01-25T10:30:10;10.70;1.00
15937;DHT22;9163;48.818;8.976;2024-01-25T10:32:38;11.90;1.00
15937;DHT22;9163;48.818;8.976;2024-01-25T10:35:06;13.30;1.00
15937;DHT22;9163;48.818;8.976;2024-01-25T10:37:36;15.30;99.90
15937;DHT22;9163;48.818;8.976;2024-01-25T10:40:05;14.30;99.90
15937;DHT22;9163;48.818;8.976;2024-01-25T10:42:34;13.30;99.90
15937;DHT22;9163;48.818;8.976;2024-01-25T10:45:01;13.60;99.90
15937;DHT22;9163;48.818;8.976;2024-01-25T10:47:28;13.80;99.90
15937;DHT22;9163;48.818;8.976;2024-01-25T10:50:00;13.80;99.90
15937;DHT22;9163;48.818;8.976;2024-01-25T10:52:28;14.80;99.90
15937;DHT22;9163;48.818;8.976;2024-01-25T10:54:57;14.70;99.90
15937;DHT22;9163;48.818;8.976;2024-01-25T10:57:24;15.60;99.90
15937;DHT22;9163;48.818;8.976;2024-01-25T10:59:53;16.30;94.30
15937;DHT22;9163;48.818;8.976;2024-01-25T11:02:20;17.70;44.70
15937;DHT22;9163;48.818;8.976;2024-01-25T11:04:53;17.70;24.00
15937;DHT22;9163;48.818;8.976;2024-01-25T11:07:21;18.20;7.20
15937;DHT22;9163;48.818;8.976;2024-01-25T11:09:51;19.00;1.00
15937;DHT22;9163;48.818;8.976;2024-01-25T11:12:19;20.90;73.90
15937;DHT22;9163;48.818;8.976;2024-01-25T11:14:55;20.30;99.90
15937;DHT22;9163;48.818;8.976;2024-01-25T11:17:22;22.90;99.90
15937;DHT22;9163;48.818;8.976;2024-01-25T11:19:50;22.70;99.90
15937;DHT22;9163;48.818;8.976;2024-01-25T11:22:17;20.90;1.00
15937;DHT22;9163;48.818;8.976;2024-01-25T11:24:45;19.70;1.00
15937;DHT22;9163;48.818;8.976;2024-01-25T11:27:15;19.20;1.00
15937;DHT22;9163;48.818;8.976;2024-01-25T11:29:42;18.80;1.00
15937;DHT22;9163;48.818;8.976;2024-01-25T11:32:12;17.20;1.00
15937;DHT22;9163;48.818;8.976;2024-01-25T11:34:39;18.30;1.00
15937;DHT22;9163;48.818;8.976;2024-01-25T11:37:06;19.80;1.00
15937;DHT22;9163;48.818;8.976;2024-01-25T11:39:34;20.30;1.00
15937;DHT22;9163;48.818;8.976;2024-01-25T11:42:01;22.10;1.00
15937;DHT22;9163;48.818;8.976;2024-01-25T11:44:29;23.90;1.00
15937;DHT22;9163;48.818;8.976;2024-01-25T11:46:57;25.70;1.00
15937;DHT22;9163;48.818;8.976;2024-01-25T11:49:26;26.70;99.90
15937;DHT22;9163;48.818;8.976;2024-01-25T11:51:53;27.50;1.00
15937;DHT22;9163;48.818;8.976;2024-01-25T11:54:20;25.70;1.00
15937;DHT22;9163;48.818;8.976;2024-01-25T11:56:47;24.80;99.90
15937;DHT22;9163;48.818;8.976;2024-01-25T11:59:15;24.60;1.00
15937;DHT22;9163;48.818;8.976;2024-01-25T12:01:43;25.70;1.00
15937;DHT22;9163;48.818;8.976;2024-01-25T12:04:10;25.80;99.90
15937;DHT22;9163;48.818;8.976;2024-01-25T12:06:39;26.10;99.90
15937;DHT22;9163;48.818;8.976;2024-01-25T12:09:08;24.90;99.90
15937;DHT22;9163;48.818;8.976;2024-01-25T12:11:36;24.30;99.90
15937;DHT22;9163;48.818;8.976;2024-01-25T12:14:03;23.40;99.90
15937;DHT22;9163;48.818;8.976;2024-01-25T12:16:32;22.60;99.90
15937;DHT22;9163;48.818;8.976;2024-01-25T12:18:59;21.90;99.90
15937;DHT22;9163;48.818;8.976;2024-01-25T12:21:26;21.10;99.90
15937;DHT22;9163;48.818;8.976;2024-01-25T12:23:55;20.10;99.90
15937;DHT22;9163;48.818;8.976;2024-01-25T12:26:22;18.70;99.90
15937;DHT22;9163;48.818;8.976;2024-01-25T12:28:49;20.20;99.90
15937;DHT22;9163;48.818;8.976;2024-01-25T12:31:17;22.20;99.90
15937;DHT22;9163;48.818;8.976;2024-01-25T12:33:44;23.20;99.90
15937;DHT22;9163;48.818;8.976;2024-01-25T12:36:11;25.30;99.90
15937;DHT22;9163;48.818;8.976;2024-01-25T12:38:39;23.70;99.90
15937;DHT22;9163;48.818;8.976;2024-01-25T12:41:07;24.80;99.90
15937;DHT22;9163;48.818;8.976;2024-01-25T12:43:34;25.50;99.90
15937;DHT22;9163;48.818;8.976;2024-01-25T12:46:02;25.90;99.90
15937;DHT22;9163;48.818;8.976;2024-01-25T12:48:29;26.60;99.90
15937;DHT22;9163;48.818;8.976;2024-01-25T12:50:56;27.50;99.90
15937;DHT22;9163;48.818;8.976;2024-01-25T12:53:24;29.30;1.00
15937;DHT22;9163;48.818;8.976;2024-01-25T12:55:51;29.30;1.00
15937;DHT22;9163;48.818;8.976;2024-01-25T12:58:20;27.10;1.00
15937;DHT22;9163;48.818;8.976;2024-01-25T13:00:47;28.80;1.00
15937;DHT22;9163;48.818;8.976;2024-01-25T13:03:15;30.00;99.90
15937;DHT22;9163;48.818;8.976;2024-01-25T13:05:42;25.90;99.90
15937;DHT22;9163;48.818;8.976;2024-01-25T13:08:09;25.40;1.00
15937;DHT22;9163;48.818;8.976;2024-01-25T13:10:36;26.20;1.00
15937;DHT22;9163;48.818;8.976;2024-01-25T13:13:04;27.20;99.90
15937;DHT22;9163;48.818;8.976;2024-01-25T13:15:32;28.50;99.90
15937;DHT22;9163;48.818;8.976;2024-01-25T13:18:00;28.20;99.90
15937;DHT22;9163;48.818;8.976;2024-01-25T13:20:28;30.30;99.90
15937;DHT22;9163;48.818;8.976;2024-01-25T13:22:55;30.20;1.00
15937;DHT22;9163;48.818;8.976;2024-01-25T13:25:22;28.90;99.90
15937;DHT22;9163;48.818;8.976;2024-01-25T13:27:49;29.20;1.00
15937;DHT22;9163;48.818;8.976;2024-01-25T13:30:17;27.80;99.90
15937;DHT22;9163;48.818;8.976;2024-01-25T13:32:46;26.50;99.90
15937;DHT22;9163;48.818;8.976;2024-01-25T13:35:13;26.90;99.90
15937;DHT22;9163;48.818;8.976;2024-01-25T13:37:40;26.10;99.90
15937;DHT22;9163;48.818;8.976;2024-01-25T13:40:08;24.00;99.90
15937;DHT22;9163;48.818;8.976;2024-01-25T13:42:36;24.10;99.90
15937;DHT22;9163;48.818;8.976;2024-01-25T13:45:05;23.10;99.90
15937;DHT22;9163;48.818;8.976;2024-01-25T13:47:33;23.30;99.90
15937;DHT22;9163;48.818;8.976;2024-01-25T13:50:01;23.20;43.40
15937;DHT22;9163;48.818;8.976;2024-01-25T13:52:29;22.90;42.30
15937;DHT22;9163;48.818;8.976;2024-01-25T13:54:56;22.90;1.00
15937;DHT22;9163;48.818;8.976;2024-01-25T13:57:23;23.20;1.00
15937;DHT22;9163;48.818;8.976;2024-01-25T13:59:50;23.50;10.40
15937;DHT22;9163;48.818;8.976;2024-01-25T14:02:18;23.30;1.50
15937;DHT22;9163;48.818;8.976;2024-01-25T14:04:45;23.30;1.00
15937;DHT22;9163;48.818;8.976;2024-01-25T14:07:15;22.80;1.00
15937;DHT22;9163;48.818;8.976;2024-01-25T14:09:43;22.30;1.00
15937;DHT22;9163;48.818;8.976;2024-01-25T14:12:10;22.70;1.00
15937;DHT22;9163;48.818;8.976;2024-01-25T14:14:37;21.90;1.00
15937;DHT22;9163;48.818;8.976;2024-01-25T14:17:05;21.40;1.00
15937;DHT22;9163;48.818;8.976;2024-01-25T14:19:32;20.50;1.00
15937;DHT22;9163;48.818;8.976;2024-01-25T14:21:59;19.30;1.00
15937;DHT22;9163;48.818;8.976;2024-01-25T14:24:28;18.30;1.00
15937;DHT22;9163;48.818;8.976;2024-01-25T14:26:55;17.20;1.00
15937;DHT22;9163;48.818;8.976;2024-01-25T14:29:22;16.00;1.00
15937;DHT22;9163;48.818;8.976;2024-01-25T14:31:50;15.60;20.20
15937;DHT22;9163;48.818;8.976;2024-01-25T14:34:17;15.00;1.00
15937;DHT22;9163;48.818;8.976;2024-01-25T14:36:44;14.90;1.00
15937;DHT22;9163;48.818;8.976;2024-01-25T14:39:11;15.00;1.00
15937;DHT22;9163;48.818;8.976;2024-01-25T14:41:41;14.80;1.00
15937;DHT22;9163;48.818;8.976;2024-01-25T14:44:08;14.40;1.00
15937;DHT22;9163;48.818;8.976;2024-01-25T14:46:35;14.30;1.00
15937;DHT22;9163;48.818;8.976;2024-01-25T14:49:03;14.00;1.00
15937;DHT22;9163;48.818;8.976;2024-01-25T14:51:30;13.80;99.90
15937;DHT22;9163;48.818;8.976;2024-01-25T14:53:58;13.60;1.00
15937;DHT22;9163;48.818;8.976;2024-01-25T14:56:25;13.50;99.90
15937;DHT22;9163;48.818;8.976;2024-01-25T14:58:54;13.30;99.90
15937;DHT22;9163;48.818;8.976;2024-01-25T15:01:21;13.10;99.90
15937;DHT22;9163;48.818;8.976;2024-01-25T15:03:54;12.90;99.90
15937;DHT22;9163;48.818;8.976;2024-01-25T15:06:21;12.80;99.90
15937;DHT22;9163;48.818;8.976;2024-01-25T15:08:48;12.60;28.20
15937;DHT22;9163;48.818;8.976;2024-01-25T15:11:15;12.50;99.90
15937;DHT22;9163;48.818;8.976;2024-01-25T15:13:43;12.30;99.90
15937;DHT22;9163;48.818;8.976;2024-01-25T15:16:11;12.20;99.90
15937;DHT22;9163;48.818;8.976;2024-01-25T15:18:39;12.10;99.90
15937;DHT22;9163;48.818;8.976;2024-01-25T15:21:06;11.90;1.00
15937;DHT22;9163;48.818;8.976;2024-01-25T15:23:33;11.70;1.00
15937;DHT22;9163;48.818;8.976;2024-01-25T15:26:03;11.40;1.00
15937;DHT22;9163;48.818;8.976;2024-01-25T15:28:30;11.30;1.00
15937;DHT22;9163;48.818;8.976;2024-01-25T15:30:58;11.30;1.00
15937;DHT22;9163;48.818;8.976;2024-01-25T15:33:26;11.20;1.00
15937;DHT22;9163;48.818;8.976;2024-01-25T15:35:54;11.10;75.60
15937;DHT22;9163;48.818;8.976;2024-01-25T15:38:21;11.10;99.90
15937;DHT22;9163;48.818;8.976;2024-01-25T15:40:48;11.00;99.90
15937;DHT22;9163;48.818;8.976;2024-01-25T15:43:16;10.80;99.90
15937;DHT22;9163;48.818;8.976;2024-01-25T15:45:43;10.70;1.00
15937;DHT22;9163;48.818;8.976;2024-01-25T15:48:11;10.60;1.00
15937;DHT22;9163;48.818;8.976;2024-01-25T15:50:39;10.50;1.00
15937;DHT22;9163;48.818;8.976;2024-01-25T15:53:07;10.50;1.00
15937;DHT22;9163;48.818;8.976;2024-01-25T15:55:34;10.40;1.00
15937;DHT22;9163;48.818;8.976;2024-01-25T15:58:01;10.50;1.00
15937;DHT22;9163;48.818;8.976;2024-01-25T16:00:28;10.40;99.90
15937;DHT22;9163;48.818;8.976;2024-01-25T16:02:56;10.30;99.90